Time;durP1;ratioP1;P1;durP2;ratioP2;P2;SDS_P1;SDS_P2;PMS_P1;PMS_P2;Temp;Humidity;BMP_temperature;BMP_pressure;BME280_temperature;BME280_humidity;BME280_pressure;Samples;Min_cycle;Max_cycle;Signal;HPM_P1;HPM_P2
2022/05/05 00:00:53;;;;;;;11.75;4.47;;;;;;;6.91;100.00;99263.22;5174290;27;20165;-46
2022/05/05 00:03:20;;;;;;;9.38;3.97;;;;;;;6.84;100.00;99258.31;5173951;27;20050;-47
2022/05/05 00:05:46;;;;;;;9.88;3.60;;;;;;;6.66;100.00;99256.91;5173651;27;20053;-46
2022/05/05 00:08:12;;;;;;;10.40;4.30;;;;;;;6.67;100.00;99265.88;5173911;27;20443;-47
2022/05/05 00:16:07;;;;;;;9.70;4.18;;;;;;;6.67;100.00;99274.06;5173659;27;20089;-46
2022/05/05 00:18:34;;;;;;;13.43;4.45;;;;;;;6.98;100.00;99262.66;5173445;27;20398;-46
2022/05/05 00:21:00;;;;;;;20.58;4.90;;;;;;;7.19;100.00;99285.16;5173410;27;20103;-45
2022/05/05 00:23:27;;;;;;;8.68;4.10;;;;;;;6.92;100.00;99291.25;5173250;27;20528;-46
2022/05/05 00:25:53;;;;;;;11.40;4.95;;;;;;;6.66;100.00;99283.34;5173377;27;20046;-47
2022/05/05 00:28:19;;;;;;;8.40;4.50;;;;;;;6.16;100.00;99252.38;5173098;27;20054;-45
2022/05/05 00:30:45;;;;;;;12.85;4.88;;;;;;;6.19;100.00;99224.50;5173380;27;20057;-46
2022/05/05 00:33:11;;;;;;;16.55;4.50;;;;;;;6.70;100.00;99216.19;5172972;27;20512;-45
2022/05/05 00:35:38;;;;;;;18.88;5.15;;;;;;;7.00;100.00;99257.66;5172356;27;20046;-46
2022/05/05 00:38:05;;;;;;;16.63;5.30;;;;;;;6.90;100.00;99280.72;5173156;27;20497;-46
2022/05/05 00:40:31;;;;;;;10.40;5.15;;;;;;;6.62;100.00;99285.94;5173026;27;20046;-47
2022/05/05 00:42:59;;;;;;;15.25;5.13;;;;;;;6.40;100.00;99257.16;5173191;27;20121;-47
2022/05/05 00:45:25;;;;;;;8.27;4.10;;;;;;;6.28;100.00;99233.41;5172883;27;20420;-46
2022/05/05 00:47:51;;;;;;;16.92;5.00;;;;;;;6.40;100.00;99240.84;5173016;27;20053;-46
2022/05/05 00:50:20;;;;;;;10.90;4.78;;;;;;;6.80;100.00;99254.69;5173019;27;20057;-46
2022/05/05 00:52:47;;;;;;;17.45;4.80;;;;;;;7.05;100.00;99266.41;5172769;27;20530;-46
2022/05/05 00:55:13;;;;;;;13.90;5.22;;;;;;;6.89;100.00;99289.19;5172776;27;20047;-45
2022/05/05 00:57:39;;;;;;;16.77;5.80;;;;;;;6.45;100.00;99284.19;5172769;27;20050;-46
2022/05/05 01:00:07;;;;;;;12.02;4.60;;;;;;;6.08;100.00;99256.78;5172621;27;20046;-47
2022/05/05 01:02:33;;;;;;;14.45;5.43;;;;;;;5.87;100.00;99236.94;5172598;27;20054;-45
2022/05/05 01:05:00;;;;;;;12.43;4.65;;;;;;;5.98;100.00;99210.94;5172704;27;20053;-46
2022/05/05 01:07:26;;;;;;;13.90;5.60;;;;;;;5.59;100.00;99212.94;5172711;27;20054;-45
2022/05/05 01:09:53;;;;;;;10.93;5.00;;;;;;;5.26;100.00;99169.31;5172573;27;20046;-45
2022/05/05 01:12:22;;;;;;;12.13;5.82;;;;;;;5.38;100.00;99147.66;5172407;27;20050;-45
2022/05/05 01:14:48;;;;;;;19.02;6.43;;;;;;;5.71;100.00;99157.81;5172674;27;20042;-46
2022/05/05 01:17:15;;;;;;;16.98;5.47;;;;;;;5.96;100.00;99175.06;5172668;27;20046;-45
2022/05/05 01:19:41;;;;;;;12.05;5.90;;;;;;;6.57;100.00;99227.03;5172565;27;20050;-45
2022/05/05 01:22:08;;;;;;;11.45;4.68;;;;;;;6.21;100.00;99243.25;5172392;27;20050;-45
2022/05/05 01:30:03;;;;;;;16.77;6.03;;;;;;;6.04;100.00;99225.94;5172416;27;20523;-45
2022/05/05 01:32:34;;;;;;;15.60;6.05;;;;;;;6.51;100.00;99244.72;5172374;27;20061;-45
2022/05/05 01:35:01;;;;;;;19.48;6.50;;;;;;;5.86;100.00;99252.47;5172150;27;20521;-47
2022/05/05 01:37:28;;;;;;;11.55;5.68;;;;;;;5.84;100.00;99210.38;5172431;27;20390;-46
2022/05/05 01:39:54;;;;;;;17.83;5.78;;;;;;;5.82;100.00;99196.28;5172055;27;20053;-45
2022/05/05 01:42:20;;;;;;;12.80;5.10;;;;;;;6.34;100.00;99215.72;5172240;27;20050;-46
2022/05/05 01:44:47;;;;;;;10.65;4.75;;;;;;;6.29;100.00;99239.63;5172180;27;20073;-47
2022/05/05 01:47:13;;;;;;;18.98;6.13;;;;;;;6.04;100.00;99239.53;5173249;27;20051;-45
2022/05/05 01:49:39;;;;;;;11.35;5.78;;;;;;;5.55;100.00;99224.81;5175802;27;20046;-46
2022/05/05 01:52:09;;;;;;;13.25;5.32;;;;;;;5.19;100.00;99186.16;5175563;27;20057;-45
2022/05/05 01:54:36;;;;;;;14.40;4.82;;;;;;;5.13;100.00;99157.59;5176118;27;20102;-45
2022/05/05 01:57:02;;;;;;;15.20;5.57;;;;;;;5.52;100.00;99152.06;5175832;27;20556;-45
2022/05/05 01:59:28;;;;;;;9.35;5.20;;;;;;;5.64;100.00;99171.16;5175894;27;20042;-45
2022/05/05 02:01:55;;;;;;;21.08;6.07;;;;;;;5.57;100.00;99192.66;5175732;27;20105;-45
2022/05/05 02:04:21;;;;;;;9.75;5.20;;;;;;;5.89;100.00;99172.06;5175798;27;20050;-45
2022/05/05 02:06:47;;;;;;;13.60;5.70;;;;;;;6.18;100.00;99211.25;5175542;27;20095;-45
2022/05/05 02:09:13;;;;;;;10.88;5.60;;;;;;;5.99;100.00;99214.44;5175638;27;20429;-45
2022/05/05 02:11:41;;;;;;;13.23;5.45;;;;;;;6.09;100.00;99228.44;5175431;27;20508;-45
2022/05/05 02:14:08;;;;;;;11.18;5.78;;;;;;;6.18;100.00;99250.16;5175524;27;20429;-45
2022/05/05 02:16:34;;;;;;;16.92;5.85;;;;;;;5.69;100.00;99240.88;5175364;27;20053;-47
2022/05/05 02:19:00;;;;;;;25.75;6.00;;;;;;;5.30;100.00;99216.50;5175294;27;20056;-45
2022/05/05 02:21:26;;;;;;;14.10;6.90;;;;;;;5.15;100.00;99177.06;5175439;27;20050;-45
2022/05/05 02:23:52;;;;;;;12.80;5.53;;;;;;;5.38;100.00;99168.63;5175185;27;20061;-47
2022/05/05 02:26:18;;;;;;;12.95;5.93;;;;;;;5.49;100.00;99193.50;5175393;27;20078;-48
2022/05/05 02:28:46;;;;;;;12.13;4.75;;;;;;;5.63;100.00;99197.56;5175093;27;20050;-47
2022/05/05 02:31:12;;;;;;;14.82;4.38;;;;;;;5.79;100.00;99194.25;5175287;27;20054;-46
2022/05/05 02:33:38;;;;;;;11.15;5.18;;;;;;;6.03;100.00;99227.06;5174911;27;20050;-45
2022/05/05 02:38:49;;;;;;;12.27;5.72;;;;;;;5.70;100.00;99239.75;5175164;27;20045;-45
2022/05/05 02:41:16;;;;;;;16.02;6.47;;;;;;;5.57;100.00;99236.97;5175118;27;20078;-45
2022/05/05 02:43:42;;;;;;;12.30;5.75;;;;;;;5.12;100.00;99202.19;5174929;27;20054;-45
2022/05/05 02:46:09;;;;;;;17.85;6.10;;;;;;;4.99;100.00;99177.94;5174880;27;20055;-45
2022/05/05 02:48:36;;;;;;;10.40;5.38;;;;;;;5.81;100.00;99183.84;5175024;27;20069;-46
2022/05/05 02:51:03;;;;;;;20.85;7.13;;;;;;;5.89;100.00;99238.16;5174986;27;20054;-45
2022/05/05 02:56:16;;;;;;;15.48;5.00;;;;;;;6.64;100.00;99278.25;5175121;27;20407;-46
2022/05/05 02:58:42;;;;;;;17.10;5.70;;;;;;;6.65;100.00;99290.72;5174321;27;20081;-46
2022/05/05 03:01:09;;;;;;;16.00;5.78;;;;;;;6.88;100.00;99307.50;5175063;27;20054;-45
2022/05/05 03:03:35;;;;;;;15.40;6.55;;;;;;;7.10;100.00;99327.28;5175247;27;20077;-45
2022/05/05 03:06:01;;;;;;;17.00;6.13;;;;;;;7.54;100.00;99342.81;5174906;27;20060;-46
2022/05/05 03:08:28;;;;;;;9.40;5.00;;;;;;;8.38;100.00;99379.78;5174536;27;20087;-47
2022/05/05 03:10:54;;;;;;;11.07;5.90;;;;;;;8.83;100.00;99431.47;5174479;27;20054;-46
2022/05/05 03:13:20;;;;;;;17.33;6.50;;;;;;;9.54;100.00;99461.94;5174350;27;20054;-46
2022/05/05 03:15:46;;;;;;;12.15;5.82;;;;;;;10.06;100.00;99502.81;5174399;27;20050;-46
2022/05/05 03:18:13;;;;;;;12.38;5.55;;;;;;;10.57;100.00;99537.75;5174541;27;20061;-46
2022/05/05 03:20:39;;;;;;;14.68;5.45;;;;;;;10.50;100.00;99551.28;5174716;27;20054;-45
2022/05/05 03:23:05;;;;;;;11.93;5.25;;;;;;;11.10;100.00;99562.06;5174194;27;20046;-46
2022/05/05 03:25:32;;;;;;;11.88;5.25;;;;;;;11.72;100.00;99587.66;5174624;27;20094;-46
2022/05/05 03:27:58;;;;;;;10.10;5.57;;;;;;;11.76;100.00;99600.31;5174248;27;20054;-46
2022/05/05 03:30:24;;;;;;;12.18;5.47;;;;;;;12.18;100.00;99612.53;5174300;27;20076;-46
2022/05/05 03:32:50;;;;;;;11.35;5.18;;;;;;;12.40;100.00;99617.25;5174051;27;20501;-46
2022/05/05 03:35:17;;;;;;;14.32;5.75;;;;;;;12.69;100.00;99624.03;5174033;27;20098;-46
2022/05/05 03:37:43;;;;;;;7.38;5.03;;;;;;;12.72;100.00;99625.25;5173987;27;20466;-46
2022/05/05 03:40:11;;;;;;;10.55;6.93;;;;;;;13.23;100.00;99640.56;5173933;27;20046;-45
2022/05/05 03:42:37;;;;;;;11.77;5.13;;;;;;;13.11;100.00;99641.59;5173962;27;20131;-46
2022/05/05 03:45:04;;;;;;;10.95;5.63;;;;;;;12.70;100.00;99644.88;5174069;27;20073;-46
2022/05/05 03:47:30;;;;;;;15.82;6.20;;;;;;;12.64;100.00;99646.34;5174102;27;20489;-47
2022/05/05 03:49:56;;;;;;;11.93;5.40;;;;;;;12.55;100.00;99636.75;5173867;27;20050;-45
2022/05/05 03:52:23;;;;;;;12.88;5.70;;;;;;;12.46;100.00;99634.22;5173679;27;20050;-47
2022/05/05 03:54:49;;;;;;;8.60;4.75;;;;;;;13.31;100.00;99637.59;5173923;27;20057;-46
2022/05/05 03:57:15;;;;;;;7.82;4.93;;;;;;;13.69;100.00;99649.50;5173945;27;20046;-46
2022/05/05 03:59:41;;;;;;;9.02;5.00;;;;;;;13.97;100.00;99651.03;5173687;27;20050;-47
2022/05/05 04:02:08;;;;;;;17.85;5.70;;;;;;;14.07;100.00;99659.44;5173803;27;20517;-47
2022/05/05 04:04:34;;;;;;;9.93;5.25;;;;;;;14.53;100.00;99661.13;5173765;27;20046;-46
2022/05/05 04:07:00;;;;;;;11.32;5.30;;;;;;;14.92;100.00;99666.19;5173533;27;20053;-46
2022/05/05 04:09:27;;;;;;;7.72;5.88;;;;;;;15.44;100.00;99676.06;5173495;27;20095;-46
2022/05/05 04:11:53;;;;;;;11.30;5.75;;;;;;;15.12;100.00;99675.81;5172215;27;20050;-46
2022/05/05 04:14:19;;;;;;;12.38;5.57;;;;;;;15.59;100.00;99674.16;5173529;27;20497;-47
2022/05/05 04:16:45;;;;;;;10.07;5.43;;;;;;;15.45;100.00;99688.69;5173721;27;20046;-47
2022/05/05 04:19:11;;;;;;;12.93;6.10;;;;;;;15.28;100.00;99690.16;5173962;27;20113;-47
2022/05/05 04:21:38;;;;;;;11.68;7.22;;;;;;;15.43;100.00;99690.28;5173561;27;20077;-46
2022/05/05 04:24:05;;;;;;;17.85;6.78;;;;;;;15.05;100.00;99698.66;5173508;27;20062;-46
2022/05/05 04:26:32;;;;;;;14.65;6.28;;;;;;;14.62;100.00;99691.16;5173723;27;20050;-47
2022/05/05 04:28:58;;;;;;;13.45;6.30;;;;;;;14.88;100.00;99679.97;5173503;27;20050;-47
2022/05/05 04:31:27;;;;;;;14.85;6.88;;;;;;;15.04;100.00;99676.97;5173149;27;20068;-46
2022/05/05 04:33:53;;;;;;;12.70;5.68;;;;;;;15.38;100.00;99674.03;5173362;27;20105;-46
2022/05/05 04:36:20;;;;;;;13.77;6.15;;;;;;;15.87;100.00;99692.13;5173307;27;20559;-46
2022/05/05 04:38:46;;;;;;;25.13;6.95;;;;;;;15.98;100.00;99692.97;5172823;27;20061;-46
2022/05/05 04:41:12;;;;;;;26.55;7.70;;;;;;;15.64;100.00;99698.69;5172743;27;20099;-47
2022/05/05 04:43:39;;;;;;;24.58;7.10;;;;;;;15.97;100.00;99702.44;5172953;27;20050;-48
2022/05/05 04:46:06;;;;;;;30.02;7.53;;;;;;;16.00;100.00;99698.91;5173016;27;20050;-50
2022/05/05 04:48:32;;;;;;;16.10;7.53;;;;;;;16.12;100.00;99700.53;5172821;27;20196;-46
2022/05/05 04:50:58;;;;;;;16.13;5.40;;;;;;;16.41;92.08;99727.09;5173101;27;20053;-47
2022/05/05 04:53:24;;;;;;;15.35;5.15;;;;;;;16.45;89.76;99733.44;5172503;27;20050;-46
2022/05/05 04:55:51;;;;;;;14.60;6.80;;;;;;;16.32;88.64;99739.72;5172843;27;20046;-47
2022/05/05 04:58:17;;;;;;;12.30;5.50;;;;;;;16.48;90.23;99735.44;5172778;27;20046;-49
2022/05/05 05:00:45;;;;;;;17.05;6.47;;;;;;;16.71;81.80;99754.47;5172756;27;20061;-47
2022/05/05 05:03:32;;;;;;;17.55;7.10;;;;;;;16.93;82.09;99758.13;5172457;27;20429;-46
2022/05/05 05:05:58;;;;;;;19.65;7.93;;;;;;;17.10;80.21;99755.75;5172630;27;20082;-55
2022/05/05 05:08:24;;;;;;;19.15;8.00;;;;;;;17.39;81.17;99753.78;5172654;27;20053;-60
2022/05/05 05:10:50;;;;;;;22.35;8.57;;;;;;;17.65;76.36;99767.22;5172910;27;20064;-61
2022/05/05 05:13:17;;;;;;;18.85;6.25;;;;;;;17.34;71.52;99777.16;5172449;27;20050;-62
2022/05/05 05:15:43;;;;;;;23.17;8.40;;;;;;;16.96;71.46;99777.88;5172320;27;20046;-62
2022/05/05 05:18:10;;;;;;;17.40;6.90;;;;;;;16.85;72.36;99773.13;5172193;27;20558;-59
2022/05/05 05:20:36;;;;;;;13.65;6.65;;;;;;;16.97;72.15;99768.41;5172304;27;20046;-60
2022/05/05 05:23:02;;;;;;;8.55;4.40;;;;;;;16.85;70.12;99777.88;5171672;27;20058;-63
2022/05/05 05:25:28;;;;;;;10.75;4.25;;;;;;;16.71;70.16;99784.13;5172376;27;20049;-60
2022/05/05 05:27:54;;;;;;;7.00;3.90;;;;;;;16.65;68.09;99782.94;5172058;27;20424;-62
2022/05/05 05:30:21;;;;;;;14.35;3.13;;;;;;;16.38;68.11;99776.91;5172050;27;20046;-61
2022/05/05 05:32:48;;;;;;;7.05;3.10;;;;;;;16.55;67.96;99778.94;5151146;27;20062;-61
2022/05/05 05:35:15;;;;;;;6.95;3.63;;;;;;;16.70;67.05;99788.09;5151090;27;20051;-61
2022/05/05 05:37:42;;;;;;;5.07;2.90;;;;;;;16.42;66.58;99778.50;5151133;27;20501;-57
2022/05/05 05:40:09;;;;;;;4.95;2.92;;;;;;;16.66;65.84;99788.09;5151166;27;20047;-60
2022/05/05 05:42:36;;;;;;;30.25;12.20;;;;;;;17.06;66.81;99785.41;5151188;27;20051;-60
2022/05/05 05:45:02;;;;;;;12.15;4.22;;;;;;;17.09;65.38;99787.41;5150949;27;20525;-60
2022/05/05 05:47:28;;;;;;;16.75;7.60;;;;;;;17.60;70.47;99789.81;5151336;27;20050;-60
2022/05/05 05:49:54;;;;;;;12.55;2.92;;;;;;;17.43;63.87;99787.84;5150858;27;20042;-61
2022/05/05 05:52:21;;;;;;;8.60;4.10;;;;;;;17.42;65.67;99789.78;5151081;27;20099;-60
2022/05/05 05:54:47;;;;;;;9.13;3.78;;;;;;;17.27;64.89;99791.00;5150984;27;20051;-60
2022/05/05 05:57:14;;;;;;;8.18;3.78;;;;;;;17.14;64.19;99798.91;5150734;27;20046;-63
2022/05/05 05:59:40;;;;;;;9.27;3.30;;;;;;;17.06;64.72;99796.50;5150980;27;20452;-61
2022/05/05 06:04:50;;;;;;;8.05;3.25;;;;;;;17.11;65.56;99790.59;5108501;27;20505;-60
2022/05/05 06:07:17;;;;;;;17.08;4.05;;;;;;;17.29;64.95;99787.81;5150570;27;20432;-60
2022/05/05 06:09:44;;;;;;;9.90;4.00;;;;;;;17.90;66.16;99783.06;5150644;27;20050;-60
2022/05/05 06:12:10;;;;;;;10.70;3.25;;;;;;;18.18;64.03;99781.41;5150535;27;20116;-60
2022/05/05 06:14:36;;;;;;;10.48;4.10;;;;;;;18.39;63.78;99786.09;5150459;27;20046;-60
2022/05/05 06:17:03;;;;;;;8.93;3.60;;;;;;;18.72;63.50;99793.09;5150486;27;20552;-62
2022/05/05 06:19:29;;;;;;;16.55;6.55;;;;;;;19.57;68.69;99783.38;5150819;27;20054;-64
2022/05/05 06:21:57;;;;;;;17.30;7.68;;;;;;;20.60;71.40;99766.81;5150624;27;20050;-65
2022/05/05 06:24:23;;;;;;;15.48;7.75;;;;;;;21.67;67.63;99778.34;5150420;27;20043;-65
2022/05/05 06:26:50;;;;;;;9.85;3.60;;;;;;;21.52;58.46;99800.88;5150845;27;20054;-68
2022/05/05 06:29:16;;;;;;;17.45;4.65;;;;;;;21.22;61.64;99795.38;5150421;27;20050;-67
2022/05/05 06:31:42;;;;;;;10.40;3.58;;;;;;;20.44;60.48;99793.22;5150774;27;20103;-66
2022/05/05 06:34:10;;;;;;;12.52;4.57;;;;;;;20.55;62.89;99790.31;5151370;27;20051;-69
2022/05/05 06:36:36;;;;;;;10.63;5.53;;;;;;;20.57;62.34;99796.28;5154223;27;20087;-69
2022/05/05 06:39:03;;;;;;;4.43;2.20;;;;;;;19.93;59.22;99803.34;5153750;27;20466;-68
2022/05/05 06:41:29;;;;;;;3.42;2.30;;;;;;;19.75;58.80;99806.28;5154131;27;20414;-71
2022/05/05 06:43:56;;;;;;;9.10;3.30;;;;;;;19.01;60.59;99796.50;5153856;27;20054;-70
2022/05/05 06:46:23;;;;;;;6.35;2.67;;;;;;;18.92;60.29;99799.72;5154110;27;20062;-70
2022/05/05 06:48:49;;;;;;;7.95;3.60;;;;;;;18.91;63.64;99805.72;5153710;27;20095;-70
2022/05/05 06:51:15;;;;;;;7.22;2.47;;;;;;;19.39;59.38;99791.88;5153779;27;20058;-71
2022/05/05 06:53:41;;;;;;;11.65;6.88;;;;;;;20.19;67.88;99787.16;5153331;27;20069;-67
2022/05/05 06:56:08;;;;;;;8.40;2.83;;;;;;;20.28;58.98;99795.00;5153974;27;20049;-68
2022/05/05 06:58:34;;;;;;;13.05;2.85;;;;;;;19.87;58.48;99805.00;5154218;27;20058;-66
2022/05/05 07:03:45;;;;;;;6.25;2.75;;;;;;;20.48;59.38;99795.19;5153935;27;20053;-65
2022/05/05 07:06:11;;;;;;;9.25;2.58;;;;;;;19.94;60.12;99799.34;5153558;27;20065;-67
2022/05/05 07:11:22;;;;;;;5.05;2.25;;;;;;;19.31;56.41;99817.38;5153528;27;20103;-68
2022/05/05 07:13:48;;;;;;;5.35;1.90;;;;;;;19.39;55.24;99819.69;5153343;27;20513;-66
2022/05/05 07:16:15;;;;;;;4.68;1.98;;;;;;;19.61;55.94;99811.16;5153339;27;20141;-67
2022/05/05 07:18:41;;;;;;;6.40;3.50;;;;;;;20.00;57.56;99808.06;5153230;27;20058;-67
2022/05/05 07:21:07;;;;;;;8.57;3.03;;;;;;;19.88;60.65;99803.00;5153242;27;20053;-67
2022/05/05 07:23:34;;;;;;;3.58;2.08;;;;;;;19.42;55.61;99809.72;5153260;27;20457;-67
2022/05/05 07:26:00;;;;;;;2.17;1.40;;;;;;;19.38;54.14;99811.75;5153396;27;20050;-66
2022/05/05 07:28:26;;;;;;;3.80;1.40;;;;;;;19.86;52.86;99808.16;5152959;27;20413;-67
2022/05/05 07:30:53;;;;;;;6.85;2.70;;;;;;;19.97;56.15;99809.66;5153476;27;20050;-68
2022/05/05 07:33:21;;;;;;;4.97;2.67;;;;;;;19.77;54.15;99814.22;5153138;27;20054;-67
2022/05/05 07:35:48;;;;;;;6.57;3.10;;;;;;;20.12;56.64;99815.84;5153514;27;20059;-68
2022/05/05 07:38:14;;;;;;;6.63;2.78;;;;;;;20.05;56.63;99802.03;5153067;27;20074;-67
2022/05/05 07:40:40;;;;;;;11.85;2.78;;;;;;;20.26;55.99;99803.81;5153500;27;20489;-67
2022/05/05 07:43:07;;;;;;;9.93;3.00;;;;;;;19.62;57.79;99805.19;5152962;27;20141;-68
2022/05/05 07:45:33;;;;;;;8.05;3.35;;;;;;;20.27;58.76;99788.66;5152708;27;20059;-67
2022/05/05 07:48:01;;;;;;;5.13;2.83;;;;;;;20.52;59.30;99787.59;5152906;27;20061;-67
2022/05/05 07:50:28;;;;;;;3.42;2.15;;;;;;;20.44;58.91;99801.56;5152667;27;20055;-67
2022/05/05 07:52:54;;;;;;;6.22;2.47;;;;;;;20.61;57.04;99785.88;5152719;27;20054;-68
2022/05/05 07:55:21;;;;;;;3.63;2.20;;;;;;;20.12;55.80;99792.81;5152711;27;20046;-67
2022/05/05 07:57:47;;;;;;;5.07;2.55;;;;;;;20.25;57.75;99788.28;5152562;27;20099;-68
2022/05/05 08:00:14;;;;;;;4.05;2.30;;;;;;;19.28;56.23;99802.28;5152601;27;20520;-69
2022/05/05 08:02:41;;;;;;;5.55;2.10;;;;;;;19.63;57.07;99801.25;5152967;27;20054;-67
2022/05/05 08:05:09;;;;;;;4.03;1.90;;;;;;;19.07;57.92;99802.44;5152447;27;20429;-67
2022/05/05 08:07:39;;;;;;;5.45;2.55;;;;;;;18.75;57.50;99795.06;5152871;27;20053;-68
2022/05/05 08:10:06;;;;;;;8.70;6.15;;;;;;;18.58;58.97;99788.38;5152777;27;20505;-67
2022/05/05 08:12:33;;;;;;;7.82;5.15;;;;;;;19.10;57.37;99784.97;5152392;27;20482;-67
2022/05/05 08:15:01;;;;;;;11.55;5.22;;;;;;;19.62;57.46;99785.72;5152590;27;20057;-65
2022/05/05 08:17:29;;;;;;;4.72;3.72;;;;;;;19.89;57.68;99787.88;5152255;27;20462;-66
2022/05/05 08:19:55;;;;;;;8.57;4.50;;;;;;;20.10;57.49;99784.09;5152629;27;20501;-66
2022/05/05 08:22:21;;;;;;;16.67;4.10;;;;;;;20.15;57.99;99775.28;5152461;27;20058;-65
2022/05/05 08:30:17;;;;;;;15.52;6.22;;;;;;;21.67;59.68;99761.59;5152416;27;20425;-53
2022/05/05 08:32:43;;;;;;;8.55;3.55;;;;;;;22.02;57.20;99765.72;5152060;27;20050;-55
2022/05/05 08:35:10;;;;;;;7.85;4.50;;;;;;;22.15;57.33;99771.44;5152184;27;20047;-52
2022/05/05 08:37:36;;;;;;;15.27;5.22;;;;;;;22.24;57.37;99774.50;5152426;27;20078;-54
2022/05/05 08:40:05;;;;;;;6.43;4.00;;;;;;;22.40;56.05;99768.19;5152041;27;20062;-56
2022/05/05 08:42:31;;;;;;;6.95;3.90;;;;;;;22.46;56.86;99766.44;5152167;27;20051;-54
2022/05/05 08:44:59;;;;;;;10.35;4.15;;;;;;;22.31;56.27;99758.38;5151759;27;20051;-55
2022/05/05 08:47:31;;;;;;;5.72;3.63;;;;;;;22.43;56.31;99758.97;5151927;27;20047;-53
2022/05/05 08:49:59;;;;;;;5.35;3.78;;;;;;;22.37;58.57;99755.88;5152190;27;20061;-56
2022/05/05 08:52:28;;;;;;;6.15;3.25;;;;;;;22.61;56.63;99764.94;5151856;27;20106;-52
2022/05/05 08:54:55;;;;;;;4.88;3.10;;;;;;;22.67;55.88;99770.81;5151785;27;20106;-53
2022/05/05 08:57:23;;;;;;;8.18;4.75;;;;;;;22.85;57.55;99760.00;5151355;27;20042;-52
2022/05/05 08:59:49;;;;;;;6.93;4.15;;;;;;;22.91;57.29;99772.25;5151942;27;20050;-52
2022/05/05 09:02:15;;;;;;;6.30;2.13;;;;;;;22.50;54.62;99762.38;5151781;27;20050;-55
2022/05/05 09:04:44;;;;;;;6.43;3.15;;;;;;;22.18;57.02;99756.66;5151974;27;20042;-53
2022/05/05 09:07:11;;;;;;;7.35;3.00;;;;;;;22.25;55.50;99753.72;5151487;27;20076;-52
2022/05/05 09:09:37;;;;;;;3.00;2.00;;;;;;;22.01;54.04;99764.16;5151810;27;20050;-54
2022/05/05 09:12:12;;;;;;;6.15;3.10;;;;;;;21.49;55.47;99761.88;5151640;27;20102;-55
2022/05/05 09:14:41;;;;;;;6.30;4.30;;;;;;;21.58;57.39;99764.91;5151650;27;20043;-55
2022/05/05 09:17:10;;;;;;;4.70;3.42;;;;;;;21.63;57.16;99760.88;5151461;27;20047;-54
2022/05/05 09:19:38;;;;;;;6.00;3.50;;;;;;;21.68;58.29;99752.78;5151534;27;20057;-56
2022/05/05 09:22:05;;;;;;;5.75;3.38;;;;;;;22.16;55.91;99756.28;5151248;27;20069;-54
2022/05/05 09:24:41;;;;;;;5.53;3.80;;;;;;;22.39;57.46;99750.66;5151386;27;20057;-55
2022/05/05 09:27:24;;;;;;;7.40;2.97;;;;;;;22.71;55.78;99749.94;5151484;27;20050;-56
2022/05/05 09:30:03;;;;;;;6.00;3.57;;;;;;;23.11;57.54;99749.06;5151366;27;20153;-56
2022/05/05 09:32:33;;;;;;;6.20;3.67;;;;;;;23.26;57.08;99750.31;5151355;27;20046;-55
2022/05/05 09:35:02;;;;;;;6.53;3.85;;;;;;;23.22;55.52;99744.78;5151377;27;20073;-54
2022/05/05 09:37:29;;;;;;;6.95;3.70;;;;;;;23.28;57.59;99742.25;5151235;27;20042;-54
2022/05/05 09:39:57;;;;;;;4.47;2.22;;;;;;;23.38;54.31;99752.38;5151136;27;20096;-53
2022/05/05 09:42:41;;;;;;;10.43;5.45;;;;;;;23.11;56.09;99754.66;5151213;27;20058;-57
2022/05/05 09:45:20;;;;;;;8.15;4.05;;;;;;;22.97;57.48;99744.59;5151198;27;20374;-54
2022/05/05 09:47:51;;;;;;;7.18;2.75;;;;;;;22.78;55.46;99752.56;5151206;27;20065;-56
2022/05/05 09:50:20;;;;;;;6.55;2.42;;;;;;;22.13;54.94;99741.19;5151650;27;20047;-52
2022/05/05 09:58:19;;;;;;;6.65;3.13;;;;;;;21.01;55.97;99741.53;5151111;27;20050;-56
2022/05/05 10:00:55;;;;;;;5.90;3.25;;;;;;;20.89;58.77;99728.16;5150864;27;20395;-56
2022/05/05 10:06:23;;;;;;;5.75;3.10;;;;;;;21.73;58.25;99721.63;5150962;27;20046;-55
2022/05/05 10:08:53;;;;;;;4.38;2.25;;;;;;;21.80;56.63;99737.44;5153218;27;20047;-54
2022/05/05 10:11:20;;;;;;;5.15;2.33;;;;;;;21.08;56.44;99733.03;5154786;27;20047;-53
2022/05/05 10:13:47;;;;;;;7.85;2.40;;;;;;;20.64;55.36;99720.97;5154021;27;20421;-55
2022/05/05 10:16:15;;;;;;;6.38;3.10;;;;;;;20.14;57.88;99724.38;5154248;27;20055;-54
2022/05/05 10:18:42;;;;;;;5.95;2.50;;;;;;;20.09;59.19;99733.22;5154264;27;20046;-54
2022/05/05 10:21:11;;;;;;;7.20;2.90;;;;;;;20.03;58.04;99723.72;5154300;27;20516;-52
2022/05/05 10:23:46;;;;;;;4.35;2.47;;;;;;;19.53;58.07;99732.56;5154310;27;20046;-51
2022/05/05 10:26:13;;;;;;;7.30;1.92;;;;;;;19.40;58.57;99729.50;5154318;27;20054;-55
2022/05/05 10:28:44;;;;;;;3.58;2.63;;;;;;;19.48;59.78;99717.09;5154211;27;20042;-54
2022/05/05 10:31:12;;;;;;;5.68;2.47;;;;;;;19.64;59.22;99718.59;5154311;27;20099;-53
2022/05/05 10:33:59;;;;;;;7.47;2.50;;;;;;;19.51;61.47;99715.50;5154088;27;20050;-55
2022/05/05 10:36:25;;;;;;;6.75;3.10;;;;;;;19.56;61.60;99709.50;5153918;27;20103;-55
2022/05/05 10:38:52;;;;;;;5.95;2.88;;;;;;;19.48;59.88;99713.53;5154064;27;20054;-56
2022/05/05 10:41:39;;;;;;;8.27;3.30;;;;;;;19.25;60.02;99706.59;5153899;27;20461;-56
2022/05/05 10:44:25;;;;;;;3.85;2.60;;;;;;;19.24;63.31;99696.69;5153861;27;20149;-54
2022/05/05 10:47:02;;;;;;;6.22;3.60;;;;;;;19.05;60.70;99703.59;5153928;27;20047;-54
2022/05/05 10:49:48;;;;;;;6.10;2.80;;;;;;;19.14;60.88;99702.34;5154250;27;20042;-57
2022/05/05 10:52:28;;;;;;;8.82;3.80;;;;;;;19.13;60.01;99696.00;5153990;27;20066;-53
2022/05/05 10:54:55;;;;;;;5.55;2.75;;;;;;;18.73;59.32;99701.06;5153643;27;20515;-54
2022/05/05 10:57:40;;;;;;;6.32;2.92;;;;;;;18.25;60.89;99687.81;5153627;27;20046;-54
2022/05/05 11:00:08;;;;;;;5.53;2.83;;;;;;;18.28;62.72;99695.31;5153527;27;20053;-55
2022/05/05 11:02:35;;;;;;;7.45;3.28;;;;;;;18.69;65.20;99691.91;5153759;27;20073;-56
2022/05/05 11:05:27;;;;;;;6.68;3.50;;;;;;;18.75;65.17;99701.41;5153521;27;20047;-54
2022/05/05 11:07:54;;;;;;;7.93;2.70;;;;;;;18.69;64.31;99691.91;5153511;27;20075;-54
2022/05/05 11:10:44;;;;;;;7.85;3.05;;;;;;;18.86;64.56;99686.66;5153509;27;20051;-54
2022/05/05 11:13:34;;;;;;;3.70;2.30;;;;;;;18.87;62.50;99699.38;5153644;27;20523;-56
2022/05/05 11:22:08;;;;;;;6.75;2.45;;;;;;;17.60;63.80;99692.00;5153589;27;20156;-53
2022/05/05 11:24:35;;;;;;;5.00;2.22;;;;;;;17.24;65.96;99685.72;5153397;27;20421;-53
2022/05/05 11:27:02;;;;;;;4.13;2.80;;;;;;;17.05;66.23;99678.59;5153269;27;20050;-52
2022/05/05 11:29:29;;;;;;;7.05;3.60;;;;;;;17.38;68.60;99677.38;5153268;27;20043;-52
2022/05/05 11:32:00;;;;;;;5.70;2.70;;;;;;;17.69;67.59;99675.69;5153354;27;20043;-56
2022/05/05 11:34:33;;;;;;;4.95;2.83;;;;;;;17.74;65.82;99675.31;5153224;27;20146;-53
2022/05/05 11:37:01;;;;;;;3.38;2.40;;;;;;;17.73;64.93;99670.97;5153206;27;20058;-52
2022/05/05 11:39:28;;;;;;;8.07;3.60;;;;;;;17.76;66.58;99669.34;5153293;27;20051;-54
2022/05/05 11:41:59;;;;;;;4.55;2.10;;;;;;;18.09;65.64;99660.56;5153364;27;20054;-53
2022/05/05 11:44:26;;;;;;;7.82;3.30;;;;;;;18.16;67.07;99659.72;5153103;27;20065;-55
2022/05/05 11:46:53;;;;;;;9.75;3.97;;;;;;;18.47;66.51;99660.72;5153370;27;20055;-55
2022/05/05 11:49:19;;;;;;;5.63;2.70;;;;;;;18.55;66.67;99659.47;5152928;27;20050;-55
2022/05/05 11:51:45;;;;;;;9.15;4.20;;;;;;;18.44;67.39;99663.53;5153198;27;20051;-53
2022/05/05 11:54:14;;;;;;;8.48;3.10;;;;;;;18.50;66.66;99659.13;5153056;27;20051;-53
2022/05/05 11:56:46;;;;;;;4.07;2.47;;;;;;;18.54;67.46;99655.13;5153038;27;20046;-55
2022/05/05 12:02:00;;;;;;;11.98;4.22;;;;;;;18.64;68.88;99652.69;5152782;27;20110;-58
2022/05/05 12:04:27;;;;;;;7.72;3.75;;;;;;;18.82;67.46;99653.38;5152335;27;20058;-57
2022/05/05 12:06:53;;;;;;;7.50;3.03;;;;;;;18.64;66.93;99649.91;5152393;27;20054;-58
2022/05/05 12:09:21;;;;;;;8.50;3.13;;;;;;;18.42;67.69;99658.38;5152534;27;20047;-57
2022/05/05 12:11:48;;;;;;;12.63;3.05;;;;;;;18.18;67.47;99660.09;5152495;27;20050;-55
2022/05/05 12:14:18;;;;;;;4.00;2.35;;;;;;;17.96;65.46;99653.88;5152481;27;20054;-54
2022/05/05 12:16:44;;;;;;;9.02;3.33;;;;;;;17.74;70.06;99642.03;5152424;27;20051;-52
2022/05/05 12:19:11;;;;;;;4.35;1.92;;;;;;;17.53;68.99;99651.22;5152516;27;20421;-53